sensor_id;sensor_type;location;lat;lon;timestamp;P1;durP1;ratioP1;P2;durP2;ratioP2
45136;SDS011;30894;51.740;19.498;2023-02-26T00:01:23;1.48;;;0.85;;
45136;SDS011;30894;51.740;19.498;2023-02-26T00:03:53;1.15;;;0.88;;
45136;SDS011;30894;51.740;19.498;2023-02-26T00:06:24;1.08;;;0.80;;
45136;SDS011;30894;51.740;19.498;2023-02-26T00:08:51;0.68;;;0.60;;
45136;SDS011;30894;51.740;19.498;2023-02-26T00:11:18;0.75;;;0.60;;
45136;SDS011;30894;51.740;19.498;2023-02-26T00:13:47;2.05;;;0.93;;
45136;SDS011;30894;51.740;19.498;2023-02-26T00:16:34;0.38;;;0.38;;
45136;SDS011;30894;51.740;19.498;2023-02-26T00:19:10;0.75;;;0.75;;
45136;SDS011;30894;51.740;19.498;2023-02-26T00:21:40;1.40;;;0.88;;
45136;SDS011;30894;51.740;19.498;2023-02-26T00:24:10;1.48;;;0.95;;
45136;SDS011;30894;51.740;19.498;2023-02-26T00:26:46;2.22;;;1.05;;
45136;SDS011;30894;51.740;19.498;2023-02-26T00:29:13;6.25;;;1.20;;
45136;SDS011;30894;51.740;19.498;2023-02-26T00:31:40;3.33;;;1.13;;
45136;SDS011;30894;51.740;19.498;2023-02-26T00:34:10;0.60;;;0.60;;
45136;SDS011;30894;51.740;19.498;2023-02-26T00:40:11;2.58;;;1.20;;
45136;SDS011;30894;51.740;19.498;2023-02-26T00:43:06;1.55;;;1.00;;
45136;SDS011;30894;51.740;19.498;2023-02-26T00:46:02;6.68;;;1.17;;
45136;SDS011;30894;51.740;19.498;2023-02-26T00:48:46;0.95;;;0.70;;
45136;SDS011;30894;51.740;19.498;2023-02-26T00:51:47;2.92;;;1.17;;
45136;SDS011;30894;51.740;19.498;2023-02-26T00:54:18;0.90;;;0.65;;
45136;SDS011;30894;51.740;19.498;2023-02-26T00:56:49;2.28;;;1.15;;
45136;SDS011;30894;51.740;19.498;2023-02-26T00:59:18;1.15;;;0.80;;
45136;SDS011;30894;51.740;19.498;2023-02-26T01:01:45;2.28;;;0.98;;
45136;SDS011;30894;51.740;19.498;2023-02-26T01:04:12;0.85;;;0.65;;
45136;SDS011;30894;51.740;19.498;2023-02-26T01:06:41;5.15;;;0.88;;
45136;SDS011;30894;51.740;19.498;2023-02-26T01:09:32;1.73;;;0.88;;
45136;SDS011;30894;51.740;19.498;2023-02-26T01:12:02;5.07;;;1.50;;
45136;SDS011;30894;51.740;19.498;2023-02-26T01:14:37;4.55;;;1.00;;
45136;SDS011;30894;51.740;19.498;2023-02-26T01:17:07;3.90;;;1.05;;
45136;SDS011;30894;51.740;19.498;2023-02-26T01:28:25;0.32;;;0.32;;
45136;SDS011;30894;51.740;19.498;2023-02-26T01:30:52;0.52;;;0.52;;
45136;SDS011;30894;51.740;19.498;2023-02-26T01:33:29;3.17;;;1.35;;
45136;SDS011;30894;51.740;19.498;2023-02-26T01:36:14;2.95;;;1.25;;
45136;SDS011;30894;51.740;19.498;2023-02-26T01:44:29;1.05;;;0.50;;
45136;SDS011;30894;51.740;19.498;2023-02-26T01:50:16;0.70;;;0.70;;
45136;SDS011;30894;51.740;19.498;2023-02-26T01:55:16;1.15;;;0.80;;
45136;SDS011;30894;51.740;19.498;2023-02-26T01:57:49;4.90;;;0.90;;
45136;SDS011;30894;51.740;19.498;2023-02-26T02:03:02;1.27;;;0.90;;
45136;SDS011;30894;51.740;19.498;2023-02-26T02:08:00;1.98;;;0.98;;
45136;SDS011;30894;51.740;19.498;2023-02-26T02:10:26;2.60;;;1.05;;
45136;SDS011;30894;51.740;19.498;2023-02-26T02:13:05;2.80;;;0.90;;
45136;SDS011;30894;51.740;19.498;2023-02-26T02:15:49;2.85;;;0.95;;
45136;SDS011;30894;51.740;19.498;2023-02-26T02:21:27;3.10;;;0.57;;
45136;SDS011;30894;51.740;19.498;2023-02-26T02:24:12;2.78;;;1.55;;
45136;SDS011;30894;51.740;19.498;2023-02-26T02:36:42;0.68;;;0.68;;
45136;SDS011;30894;51.740;19.498;2023-02-26T02:39:16;1.60;;;1.05;;
45136;SDS011;30894;51.740;19.498;2023-02-26T02:41:55;1.27;;;0.82;;
45136;SDS011;30894;51.740;19.498;2023-02-26T02:44:37;0.70;;;0.50;;
45136;SDS011;30894;51.740;19.498;2023-02-26T02:47:08;0.40;;;0.40;;
45136;SDS011;30894;51.740;19.498;2023-02-26T02:49:38;1.10;;;1.02;;
45136;SDS011;30894;51.740;19.498;2023-02-26T02:52:31;1.85;;;0.77;;
45136;SDS011;30894;51.740;19.498;2023-02-26T02:55:09;2.38;;;1.00;;
45136;SDS011;30894;51.740;19.498;2023-02-26T02:57:45;2.22;;;0.60;;
45136;SDS011;30894;51.740;19.498;2023-02-26T03:00:18;1.30;;;1.20;;
45136;SDS011;30894;51.740;19.498;2023-02-26T03:03:02;0.65;;;0.65;;
45136;SDS011;30894;51.740;19.498;2023-02-26T03:05:52;0.80;;;0.70;;
45136;SDS011;30894;51.740;19.498;2023-02-26T03:08:20;1.33;;;1.05;;
45136;SDS011;30894;51.740;19.498;2023-02-26T03:10:52;1.10;;;0.77;;
45136;SDS011;30894;51.740;19.498;2023-02-26T03:13:19;0.65;;;0.45;;
45136;SDS011;30894;51.740;19.498;2023-02-26T03:24:55;1.42;;;0.35;;
45136;SDS011;30894;51.740;19.498;2023-02-26T03:30:41;1.75;;;0.75;;
45136;SDS011;30894;51.740;19.498;2023-02-26T03:36:10;1.02;;;0.95;;
45136;SDS011;30894;51.740;19.498;2023-02-26T03:38:43;0.63;;;0.63;;
45136;SDS011;30894;51.740;19.498;2023-02-26T03:44:31;0.80;;;0.57;;
45136;SDS011;30894;51.740;19.498;2023-02-26T03:47:12;0.90;;;0.73;;
45136;SDS011;30894;51.740;19.498;2023-02-26T03:49:45;0.55;;;0.55;;
45136;SDS011;30894;51.740;19.498;2023-02-26T03:52:26;3.00;;;1.30;;
45136;SDS011;30894;51.740;19.498;2023-02-26T03:57:25;1.67;;;1.08;;
45136;SDS011;30894;51.740;19.498;2023-02-26T03:59:52;3.25;;;1.15;;
45136;SDS011;30894;51.740;19.498;2023-02-26T04:02:28;0.77;;;0.77;;
45136;SDS011;30894;51.740;19.498;2023-02-26T04:05:11;0.40;;;0.40;;
45136;SDS011;30894;51.740;19.498;2023-02-26T04:07:43;0.82;;;0.57;;
45136;SDS011;30894;51.740;19.498;2023-02-26T04:10:13;0.88;;;0.80;;
45136;SDS011;30894;51.740;19.498;2023-02-26T04:12:44;0.80;;;0.68;;
45136;SDS011;30894;51.740;19.498;2023-02-26T04:15:10;0.10;;;0.10;;
45136;SDS011;30894;51.740;19.498;2023-02-26T04:17:36;0.80;;;0.73;;
45136;SDS011;30894;51.740;19.498;2023-02-26T04:20:03;4.43;;;1.13;;
45136;SDS011;30894;51.740;19.498;2023-02-26T04:22:35;6.88;;;0.60;;
45136;SDS011;30894;51.740;19.498;2023-02-26T04:25:02;0.47;;;0.47;;
45136;SDS011;30894;51.740;19.498;2023-02-26T04:27:28;2.15;;;1.17;;
45136;SDS011;30894;51.740;19.498;2023-02-26T04:29:54;4.70;;;0.98;;
45136;SDS011;30894;51.740;19.498;2023-02-26T04:32:20;0.68;;;0.68;;
45136;SDS011;30894;51.740;19.498;2023-02-26T04:34:46;1.13;;;0.77;;
45136;SDS011;30894;51.740;19.498;2023-02-26T04:37:12;0.63;;;0.63;;
45136;SDS011;30894;51.740;19.498;2023-02-26T04:39:38;1.73;;;1.35;;
45136;SDS011;30894;51.740;19.498;2023-02-26T04:42:04;1.25;;;0.90;;
45136;SDS011;30894;51.740;19.498;2023-02-26T04:44:31;0.85;;;0.45;;
45136;SDS011;30894;51.740;19.498;2023-02-26T04:46:57;0.40;;;0.40;;
45136;SDS011;30894;51.740;19.498;2023-02-26T04:49:23;0.65;;;0.65;;
45136;SDS011;30894;51.740;19.498;2023-02-26T04:51:49;0.95;;;0.70;;
45136;SDS011;30894;51.740;19.498;2023-02-26T04:54:15;0.30;;;0.30;;
45136;SDS011;30894;51.740;19.498;2023-02-26T04:56:41;1.85;;;0.90;;
45136;SDS011;30894;51.740;19.498;2023-02-26T04:59:07;1.10;;;0.52;;
45136;SDS011;30894;51.740;19.498;2023-02-26T05:01:33;0.57;;;0.57;;
45136;SDS011;30894;51.740;19.498;2023-02-26T05:04:00;1.08;;;0.60;;
45136;SDS011;30894;51.740;19.498;2023-02-26T05:06:26;1.90;;;1.05;;
45136;SDS011;30894;51.740;19.498;2023-02-26T05:08:54;0.38;;;0.38;;
45136;SDS011;30894;51.740;19.498;2023-02-26T05:11:20;0.30;;;0.30;;
45136;SDS011;30894;51.740;19.498;2023-02-26T05:13:46;1.92;;;0.80;;
45136;SDS011;30894;51.740;19.498;2023-02-26T05:16:12;0.70;;;0.70;;
45136;SDS011;30894;51.740;19.498;2023-02-26T05:18:38;0.57;;;0.28;;
45136;SDS011;30894;51.740;19.498;2023-02-26T05:21:05;0.68;;;0.52;;
45136;SDS011;30894;51.740;19.498;2023-02-26T05:23:32;1.05;;;0.95;;
45136;SDS011;30894;51.740;19.498;2023-02-26T05:25:58;0.82;;;0.70;;
45136;SDS011;30894;51.740;19.498;2023-02-26T05:28:25;1.05;;;1.00;;
45136;SDS011;30894;51.740;19.498;2023-02-26T05:30:52;0.60;;;0.60;;
45136;SDS011;30894;51.740;19.498;2023-02-26T05:33:20;0.30;;;0.30;;
45136;SDS011;30894;51.740;19.498;2023-02-26T05:35:46;0.43;;;0.43;;
45136;SDS011;30894;51.740;19.498;2023-02-26T05:38:13;0.28;;;0.22;;
45136;SDS011;30894;51.740;19.498;2023-02-26T05:40:40;3.33;;;1.15;;
45136;SDS011;30894;51.740;19.498;2023-02-26T05:43:06;2.95;;;1.15;;
45136;SDS011;30894;51.740;19.498;2023-02-26T05:45:33;2.35;;;0.57;;
45136;SDS011;30894;51.740;19.498;2023-02-26T05:48:05;1.55;;;0.68;;
45136;SDS011;30894;51.740;19.498;2023-02-26T05:50:32;0.10;;;0.10;;
45136;SDS011;30894;51.740;19.498;2023-02-26T05:52:58;0.30;;;0.30;;
45136;SDS011;30894;51.740;19.498;2023-02-26T05:55:28;1.33;;;0.52;;
45136;SDS011;30894;51.740;19.498;2023-02-26T05:57:54;0.20;;;0.20;;
45136;SDS011;30894;51.740;19.498;2023-02-26T06:00:21;0.20;;;0.20;;
45136;SDS011;30894;51.740;19.498;2023-02-26T06:02:48;0.82;;;0.30;;
45136;SDS011;30894;51.740;19.498;2023-02-26T06:05:15;0.47;;;0.43;;
45136;SDS011;30894;51.740;19.498;2023-02-26T06:07:41;0.20;;;0.20;;
45136;SDS011;30894;51.740;19.498;2023-02-26T06:10:08;0.35;;;0.35;;
45136;SDS011;30894;51.740;19.498;2023-02-26T06:12:35;0.30;;;0.30;;
45136;SDS011;30894;51.740;19.498;2023-02-26T06:15:02;0.60;;;0.30;;
45136;SDS011;30894;51.740;19.498;2023-02-26T06:17:30;0.55;;;0.30;;
45136;SDS011;30894;51.740;19.498;2023-02-26T06:19:57;1.58;;;0.60;;
45136;SDS011;30894;51.740;19.498;2023-02-26T06:22:26;0.90;;;0.40;;
45136;SDS011;30894;51.740;19.498;2023-02-26T06:24:52;0.13;;;0.13;;
45136;SDS011;30894;51.740;19.498;2023-02-26T06:27:20;0.38;;;0.38;;
45136;SDS011;30894;51.740;19.498;2023-02-26T06:29:47;0.30;;;0.30;;
45136;SDS011;30894;51.740;19.498;2023-02-26T06:32:14;0.45;;;0.45;;
45136;SDS011;30894;51.740;19.498;2023-02-26T06:34:41;0.25;;;0.25;;
45136;SDS011;30894;51.740;19.498;2023-02-26T06:37:09;0.47;;;0.47;;
45136;SDS011;30894;51.740;19.498;2023-02-26T06:39:35;1.02;;;0.75;;
45136;SDS011;30894;51.740;19.498;2023-02-26T06:42:01;2.60;;;0.73;;
45136;SDS011;30894;51.740;19.498;2023-02-26T06:44:28;0.28;;;0.28;;
45136;SDS011;30894;51.740;19.498;2023-02-26T06:46:58;1.65;;;0.47;;
45136;SDS011;30894;51.740;19.498;2023-02-26T06:49:24;0.35;;;0.35;;
45136;SDS011;30894;51.740;19.498;2023-02-26T06:51:53;0.63;;;0.52;;
45136;SDS011;30894;51.740;19.498;2023-02-26T06:54:20;0.47;;;0.47;;
45136;SDS011;30894;51.740;19.498;2023-02-26T06:56:46;0.57;;;0.30;;
45136;SDS011;30894;51.740;19.498;2023-02-26T06:59:12;0.65;;;0.50;;
45136;SDS011;30894;51.740;19.498;2023-02-26T07:01:40;0.95;;;0.90;;
45136;SDS011;30894;51.740;19.498;2023-02-26T07:04:06;0.60;;;0.60;;
45136;SDS011;30894;51.740;19.498;2023-02-26T07:06:33;0.82;;;0.75;;
45136;SDS011;30894;51.740;19.498;2023-02-26T07:09:00;2.92;;;0.85;;
45136;SDS011;30894;51.740;19.498;2023-02-26T07:11:26;0.52;;;0.50;;
45136;SDS011;30894;51.740;19.498;2023-02-26T07:13:52;0.50;;;0.50;;
45136;SDS011;30894;51.740;19.498;2023-02-26T07:16:20;1.77;;;0.75;;
45136;SDS011;30894;51.740;19.498;2023-02-26T07:18:46;0.82;;;0.47;;
45136;SDS011;30894;51.740;19.498;2023-02-26T07:21:12;1.95;;;0.63;;
45136;SDS011;30894;51.740;19.498;2023-02-26T07:23:39;3.97;;;0.75;;
45136;SDS011;30894;51.740;19.498;2023-02-26T07:26:05;0.55;;;0.55;;
45136;SDS011;30894;51.740;19.498;2023-02-26T07:28:33;6.47;;;0.63;;
45136;SDS011;30894;51.740;19.498;2023-02-26T07:30:59;0.20;;;0.20;;
45136;SDS011;30894;51.740;19.498;2023-02-26T07:33:26;4.50;;;0.68;;
45136;SDS011;30894;51.740;19.498;2023-02-26T07:35:53;0.95;;;0.80;;
45136;SDS011;30894;51.740;19.498;2023-02-26T07:38:20;1.25;;;0.52;;
45136;SDS011;30894;51.740;19.498;2023-02-26T07:40:46;0.75;;;0.70;;
45136;SDS011;30894;51.740;19.498;2023-02-26T07:43:16;2.33;;;0.88;;
45136;SDS011;30894;51.740;19.498;2023-02-26T07:45:42;0.77;;;0.68;;
45136;SDS011;30894;51.740;19.498;2023-02-26T07:48:09;0.28;;;0.28;;
45136;SDS011;30894;51.740;19.498;2023-02-26T07:50:35;0.32;;;0.32;;
45136;SDS011;30894;51.740;19.498;2023-02-26T07:53:01;0.70;;;0.70;;
45136;SDS011;30894;51.740;19.498;2023-02-26T07:55:28;0.65;;;0.40;;
45136;SDS011;30894;51.740;19.498;2023-02-26T07:57:54;0.73;;;0.65;;
45136;SDS011;30894;51.740;19.498;2023-02-26T08:00:21;2.05;;;1.30;;
45136;SDS011;30894;51.740;19.498;2023-02-26T08:02:47;0.30;;;0.30;;
45136;SDS011;30894;51.740;19.498;2023-02-26T08:05:14;0.73;;;0.60;;
45136;SDS011;30894;51.740;19.498;2023-02-26T08:07:40;1.02;;;0.98;;
45136;SDS011;30894;51.740;19.498;2023-02-26T08:10:07;1.92;;;1.20;;
45136;SDS011;30894;51.740;19.498;2023-02-26T08:12:35;0.60;;;0.60;;
45136;SDS011;30894;51.740;19.498;2023-02-26T08:15:03;0.52;;;0.52;;
45136;SDS011;30894;51.740;19.498;2023-02-26T08:17:30;0.43;;;0.43;;
45136;SDS011;30894;51.740;19.498;2023-02-26T08:19:56;0.70;;;0.70;;
45136;SDS011;30894;51.740;19.498;2023-02-26T08:22:23;1.00;;;0.35;;
45136;SDS011;30894;51.740;19.498;2023-02-26T08:24:49;0.30;;;0.30;;
45136;SDS011;30894;51.740;19.498;2023-02-26T08:27:15;0.50;;;0.50;;
45136;SDS011;30894;51.740;19.498;2023-02-26T08:29:42;0.88;;;0.47;;
45136;SDS011;30894;51.740;19.498;2023-02-26T08:32:10;1.35;;;0.75;;
45136;SDS011;30894;51.740;19.498;2023-02-26T08:34:38;12.75;;;0.80;;
45136;SDS011;30894;51.740;19.498;2023-02-26T08:37:04;1.17;;;1.02;;
45136;SDS011;30894;51.740;19.498;2023-02-26T08:39:34;2.90;;;1.25;;
45136;SDS011;30894;51.740;19.498;2023-02-26T08:42:02;2.03;;;1.08;;
45136;SDS011;30894;51.740;19.498;2023-02-26T08:44:33;0.50;;;0.50;;
45136;SDS011;30894;51.740;19.498;2023-02-26T08:46:59;0.52;;;0.52;;
45136;SDS011;30894;51.740;19.498;2023-02-26T08:49:26;0.60;;;0.57;;
45136;SDS011;30894;51.740;19.498;2023-02-26T08:51:52;2.40;;;0.95;;
45136;SDS011;30894;51.740;19.498;2023-02-26T08:54:19;9.00;;;0.93;;
45136;SDS011;30894;51.740;19.498;2023-02-26T08:56:45;2.00;;;1.67;;
45136;SDS011;30894;51.740;19.498;2023-02-26T08:59:14;1.38;;;1.08;;
45136;SDS011;30894;51.740;19.498;2023-02-26T09:01:41;2.60;;;0.93;;
45136;SDS011;30894;51.740;19.498;2023-02-26T09:04:08;2.28;;;0.95;;
45136;SDS011;30894;51.740;19.498;2023-02-26T09:06:34;3.55;;;1.23;;
45136;SDS011;30894;51.740;19.498;2023-02-26T09:09:01;1.88;;;1.35;;
45136;SDS011;30894;51.740;19.498;2023-02-26T09:11:28;0.98;;;0.88;;
45136;SDS011;30894;51.740;19.498;2023-02-26T09:13:55;1.73;;;1.13;;
45136;SDS011;30894;51.740;19.498;2023-02-26T09:16:23;2.10;;;0.95;;
45136;SDS011;30894;51.740;19.498;2023-02-26T09:18:50;1.00;;;0.80;;
45136;SDS011;30894;51.740;19.498;2023-02-26T09:21:17;1.23;;;1.10;;
45136;SDS011;30894;51.740;19.498;2023-02-26T09:23:43;5.63;;;2.35;;
45136;SDS011;30894;51.740;19.498;2023-02-26T09:26:10;1.60;;;1.02;;
45136;SDS011;30894;51.740;19.498;2023-02-26T09:28:36;2.50;;;1.63;;
45136;SDS011;30894;51.740;19.498;2023-02-26T09:31:02;2.42;;;1.33;;
45136;SDS011;30894;51.740;19.498;2023-02-26T09:33:32;0.98;;;0.88;;
45136;SDS011;30894;51.740;19.498;2023-02-26T09:35:58;1.20;;;1.10;;
45136;SDS011;30894;51.740;19.498;2023-02-26T09:38:25;2.33;;;1.00;;
45136;SDS011;30894;51.740;19.498;2023-02-26T09:49:33;1.95;;;0.98;;
45136;SDS011;30894;51.740;19.498;2023-02-26T09:52:34;1.10;;;0.70;;
45136;SDS011;30894;51.740;19.498;2023-02-26T09:55:20;1.13;;;1.02;;
45136;SDS011;30894;51.740;19.498;2023-02-26T09:57:55;0.75;;;0.75;;
45136;SDS011;30894;51.740;19.498;2023-02-26T10:00:28;2.17;;;1.33;;
45136;SDS011;30894;51.740;19.498;2023-02-26T10:11:56;2.63;;;1.50;;
45136;SDS011;30894;51.740;19.498;2023-02-26T10:17:22;1.63;;;0.87;;
45136;SDS011;30894;51.740;19.498;2023-02-26T10:20:03;2.47;;;0.95;;
45136;SDS011;30894;51.740;19.498;2023-02-26T10:22:43;1.23;;;0.68;;
45136;SDS011;30894;51.740;19.498;2023-02-26T10:25:26;3.17;;;1.75;;
45136;SDS011;30894;51.740;19.498;2023-02-26T10:37:22;1.58;;;1.17;;
45136;SDS011;30894;51.740;19.498;2023-02-26T10:40:41;2.05;;;1.08;;
45136;SDS011;30894;51.740;19.498;2023-02-26T10:43:34;1.13;;;0.98;;
45136;SDS011;30894;51.740;19.498;2023-02-26T10:52:04;3.47;;;2.15;;
45136;SDS011;30894;51.740;19.498;2023-02-26T10:55:00;7.57;;;2.80;;
45136;SDS011;30894;51.740;19.498;2023-02-26T10:57:36;6.35;;;2.78;;
45136;SDS011;30894;51.740;19.498;2023-02-26T11:00:14;7.65;;;2.83;;
45136;SDS011;30894;51.740;19.498;2023-02-26T11:02:46;2.30;;;1.63;;
45136;SDS011;30894;51.740;19.498;2023-02-26T11:05:17;10.68;;;2.50;;
45136;SDS011;30894;51.740;19.498;2023-02-26T11:07:51;3.33;;;1.58;;
45136;SDS011;30894;51.740;19.498;2023-02-26T11:10:27;8.35;;;2.60;;
45136;SDS011;30894;51.740;19.498;2023-02-26T11:13:13;5.57;;;1.30;;
45136;SDS011;30894;51.740;19.498;2023-02-26T11:15:48;1.77;;;1.52;;
45136;SDS011;30894;51.740;19.498;2023-02-26T11:18:29;2.35;;;1.20;;
45136;SDS011;30894;51.740;19.498;2023-02-26T11:23:44;3.92;;;1.23;;
45136;SDS011;30894;51.740;19.498;2023-02-26T11:26:16;4.00;;;1.70;;
45136;SDS011;30894;51.740;19.498;2023-02-26T11:28:46;8.95;;;1.48;;
45136;SDS011;30894;51.740;19.498;2023-02-26T11:31:16;5.28;;;1.83;;
45136;SDS011;30894;51.740;19.498;2023-02-26T11:33:49;6.30;;;1.60;;
45136;SDS011;30894;51.740;19.498;2023-02-26T11:36:25;1.98;;;0.88;;
45136;SDS011;30894;51.740;19.498;2023-02-26T11:39:02;1.33;;;0.90;;
45136;SDS011;30894;51.740;19.498;2023-02-26T11:41:38;4.68;;;1.08;;
45136;SDS011;30894;51.740;19.498;2023-02-26T11:44:16;2.45;;;1.13;;
45136;SDS011;30894;51.740;19.498;2023-02-26T11:46:56;2.63;;;1.27;;
45136;SDS011;30894;51.740;19.498;2023-02-26T11:49:27;2.97;;;1.38;;
45136;SDS011;30894;51.740;19.498;2023-02-26T11:54:37;4.30;;;1.38;;
45136;SDS011;30894;51.740;19.498;2023-02-26T11:57:05;3.10;;;1.38;;
45136;SDS011;30894;51.740;19.498;2023-02-26T11:59:40;2.60;;;1.20;;
45136;SDS011;30894;51.740;19.498;2023-02-26T12:02:18;1.85;;;1.10;;
45136;SDS011;30894;51.740;19.498;2023-02-26T12:04:50;1.83;;;0.95;;
45136;SDS011;30894;51.740;19.498;2023-02-26T12:07:19;2.22;;;1.20;;
45136;SDS011;30894;51.740;19.498;2023-02-26T12:09:47;3.05;;;1.48;;
45136;SDS011;30894;51.740;19.498;2023-02-26T12:12:17;2.05;;;0.82;;
45136;SDS011;30894;51.740;19.498;2023-02-26T12:15:16;0.38;;;0.38;;
45136;SDS011;30894;51.740;19.498;2023-02-26T12:21:01;0.68;;;0.52;;
45136;SDS011;30894;51.740;19.498;2023-02-26T12:23:43;0.93;;;0.85;;
45136;SDS011;30894;51.740;19.498;2023-02-26T12:30:09;0.30;;;0.20;;
45136;SDS011;30894;51.740;19.498;2023-02-26T12:32:59;0.30;;;0.30;;
45136;SDS011;30894;51.740;19.498;2023-02-26T12:38:49;1.30;;;0.82;;
45136;SDS011;30894;51.740;19.498;2023-02-26T12:41:48;5.63;;;0.63;;
45136;SDS011;30894;51.740;19.498;2023-02-26T12:45:01;2.17;;;0.88;;
45136;SDS011;30894;51.740;19.498;2023-02-26T12:51:21;3.10;;;1.15;;
45136;SDS011;30894;51.740;19.498;2023-02-26T13:10:05;5.15;;;0.70;;
45136;SDS011;30894;51.740;19.498;2023-02-26T13:21:09;2.42;;;1.00;;
45136;SDS011;30894;51.740;19.498;2023-02-26T13:24:04;1.23;;;0.65;;
45136;SDS011;30894;51.740;19.498;2023-02-26T13:26:38;2.65;;;1.00;;
45136;SDS011;30894;51.740;19.498;2023-02-26T13:31:38;1.77;;;0.60;;
45136;SDS011;30894;51.740;19.498;2023-02-26T13:34:28;4.68;;;0.88;;
45136;SDS011;30894;51.740;19.498;2023-02-26T13:37:23;2.40;;;0.75;;
45136;SDS011;30894;51.740;19.498;2023-02-26T13:43:18;1.42;;;1.33;;
45136;SDS011;30894;51.740;19.498;2023-02-26T13:45:51;1.73;;;1.40;;
45136;SDS011;30894;51.740;19.498;2023-02-26T13:51:45;4.68;;;1.58;;
45136;SDS011;30894;51.740;19.498;2023-02-26T13:56:48;1.88;;;1.05;;
45136;SDS011;30894;51.740;19.498;2023-02-26T13:59:34;6.60;;;1.77;;
45136;SDS011;30894;51.740;19.498;2023-02-26T14:04:49;3.83;;;2.13;;
45136;SDS011;30894;51.740;19.498;2023-02-26T14:10:49;4.22;;;2.25;;
45136;SDS011;30894;51.740;19.498;2023-02-26T14:16:21;7.68;;;2.42;;
45136;SDS011;30894;51.740;19.498;2023-02-26T14:18:53;2.83;;;1.70;;
45136;SDS011;30894;51.740;19.498;2023-02-26T14:21:52;2.45;;;1.50;;
45136;SDS011;30894;51.740;19.498;2023-02-26T14:24:38;3.08;;;1.35;;
45136;SDS011;30894;51.740;19.498;2023-02-26T14:29:43;6.97;;;2.67;;
45136;SDS011;30894;51.740;19.498;2023-02-26T14:35:31;7.38;;;2.20;;
45136;SDS011;30894;51.740;19.498;2023-02-26T14:41:10;3.80;;;2.00;;
45136;SDS011;30894;51.740;19.498;2023-02-26T14:44:00;5.90;;;1.83;;
45136;SDS011;30894;51.740;19.498;2023-02-26T14:46:39;2.30;;;1.73;;
45136;SDS011;30894;51.740;19.498;2023-02-26T14:49:11;3.55;;;1.40;;
45136;SDS011;30894;51.740;19.498;2023-02-26T14:54:37;5.97;;;1.20;;
45136;SDS011;30894;51.740;19.498;2023-02-26T14:57:37;1.27;;;1.10;;
45136;SDS011;30894;51.740;19.498;2023-02-26T15:00:46;5.30;;;1.67;;
45136;SDS011;30894;51.740;19.498;2023-02-26T15:06:42;5.10;;;1.58;;
45136;SDS011;30894;51.740;19.498;2023-02-26T15:15:46;2.70;;;1.25;;
45136;SDS011;30894;51.740;19.498;2023-02-26T15:18:55;3.50;;;1.35;;
45136;SDS011;30894;51.740;19.498;2023-02-26T15:24:21;3.53;;;1.63;;
45136;SDS011;30894;51.740;19.498;2023-02-26T15:26:50;3.45;;;1.67;;
45136;SDS011;30894;51.740;19.498;2023-02-26T15:29:24;5.55;;;2.17;;
45136;SDS011;30894;51.740;19.498;2023-02-26T15:31:59;5.65;;;2.63;;
45136;SDS011;30894;51.740;19.498;2023-02-26T15:34:57;2.17;;;1.40;;
45136;SDS011;30894;51.740;19.498;2023-02-26T15:37:41;4.07;;;1.42;;
45136;SDS011;30894;51.740;19.498;2023-02-26T15:40:08;2.60;;;1.85;;
45136;SDS011;30894;51.740;19.498;2023-02-26T15:42:39;1.95;;;1.60;;
45136;SDS011;30894;51.740;19.498;2023-02-26T15:48:28;4.15;;;2.13;;
45136;SDS011;30894;51.740;19.498;2023-02-26T15:50:59;3.03;;;1.10;;
45136;SDS011;30894;51.740;19.498;2023-02-26T15:56:12;3.55;;;1.60;;
45136;SDS011;30894;51.740;19.498;2023-02-26T15:58:51;3.22;;;1.55;;
45136;SDS011;30894;51.740;19.498;2023-02-26T16:01:31;5.72;;;2.17;;
45136;SDS011;30894;51.740;19.498;2023-02-26T16:04:04;8.05;;;2.17;;
45136;SDS011;30894;51.740;19.498;2023-02-26T16:06:38;2.80;;;1.08;;
45136;SDS011;30894;51.740;19.498;2023-02-26T16:09:15;3.13;;;1.85;;
45136;SDS011;30894;51.740;19.498;2023-02-26T16:11:50;6.82;;;2.05;;
45136;SDS011;30894;51.740;19.498;2023-02-26T16:14:23;4.40;;;2.42;;
45136;SDS011;30894;51.740;19.498;2023-02-26T16:16:54;7.38;;;3.17;;
45136;SDS011;30894;51.740;19.498;2023-02-26T16:19:30;6.90;;;2.72;;
45136;SDS011;30894;51.740;19.498;2023-02-26T16:22:23;6.18;;;2.75;;
45136;SDS011;30894;51.740;19.498;2023-02-26T16:25:14;3.35;;;1.90;;
45136;SDS011;30894;51.740;19.498;2023-02-26T16:28:00;4.65;;;2.55;;
45136;SDS011;30894;51.740;19.498;2023-02-26T16:30:33;5.32;;;2.28;;
45136;SDS011;30894;51.740;19.498;2023-02-26T16:33:08;6.30;;;3.03;;
45136;SDS011;30894;51.740;19.498;2023-02-26T16:35:40;15.38;;;3.20;;
45136;SDS011;30894;51.740;19.498;2023-02-26T16:38:23;6.18;;;2.58;;
45136;SDS011;30894;51.740;19.498;2023-02-26T16:51:52;8.77;;;2.28;;
45136;SDS011;30894;51.740;19.498;2023-02-26T16:54:24;3.78;;;2.10;;
45136;SDS011;30894;51.740;19.498;2023-02-26T16:56:59;4.85;;;1.65;;
45136;SDS011;30894;51.740;19.498;2023-02-26T16:59:34;8.27;;;3.50;;
45136;SDS011;30894;51.740;19.498;2023-02-26T17:02:12;10.00;;;3.30;;
45136;SDS011;30894;51.740;19.498;2023-02-26T17:05:13;3.72;;;2.00;;
45136;SDS011;30894;51.740;19.498;2023-02-26T17:07:59;4.32;;;2.10;;
45136;SDS011;30894;51.740;19.498;2023-02-26T17:13:31;5.95;;;2.20;;
45136;SDS011;30894;51.740;19.498;2023-02-26T17:16:03;2.42;;;1.40;;
45136;SDS011;30894;51.740;19.498;2023-02-26T17:18:33;2.10;;;1.48;;
45136;SDS011;30894;51.740;19.498;2023-02-26T17:20:59;2.85;;;1.10;;
45136;SDS011;30894;51.740;19.498;2023-02-26T17:23:35;7.47;;;1.70;;
45136;SDS011;30894;51.740;19.498;2023-02-26T17:26:03;3.92;;;1.85;;
45136;SDS011;30894;51.740;19.498;2023-02-26T17:28:31;2.22;;;1.30;;
45136;SDS011;30894;51.740;19.498;2023-02-26T17:31:01;3.20;;;1.55;;
45136;SDS011;30894;51.740;19.498;2023-02-26T17:33:35;3.00;;;1.38;;
45136;SDS011;30894;51.740;19.498;2023-02-26T17:36:05;3.47;;;1.75;;
45136;SDS011;30894;51.740;19.498;2023-02-26T17:38:32;5.97;;;1.63;;
45136;SDS011;30894;51.740;19.498;2023-02-26T17:40:58;4.47;;;1.40;;
45136;SDS011;30894;51.740;19.498;2023-02-26T17:43:28;1.73;;;1.13;;
45136;SDS011;30894;51.740;19.498;2023-02-26T17:45:54;4.03;;;1.10;;
45136;SDS011;30894;51.740;19.498;2023-02-26T17:48:21;1.88;;;1.27;;
45136;SDS011;30894;51.740;19.498;2023-02-26T17:53:20;2.00;;;1.35;;
45136;SDS011;30894;51.740;19.498;2023-02-26T17:55:48;4.30;;;1.60;;
45136;SDS011;30894;51.740;19.498;2023-02-26T18:00:49;5.72;;;1.70;;
45136;SDS011;30894;51.740;19.498;2023-02-26T18:03:17;3.42;;;1.95;;
45136;SDS011;30894;51.740;19.498;2023-02-26T18:05:47;3.88;;;1.85;;
45136;SDS011;30894;51.740;19.498;2023-02-26T18:08:25;5.28;;;2.75;;
45136;SDS011;30894;51.740;19.498;2023-02-26T18:10:57;3.92;;;2.00;;
45136;SDS011;30894;51.740;19.498;2023-02-26T18:13:25;6.03;;;2.28;;
45136;SDS011;30894;51.740;19.498;2023-02-26T18:15:53;5.80;;;2.72;;
45136;SDS011;30894;51.740;19.498;2023-02-26T18:18:23;6.93;;;2.58;;
45136;SDS011;30894;51.740;19.498;2023-02-26T18:20:50;8.65;;;2.00;;
45136;SDS011;30894;51.740;19.498;2023-02-26T18:23:17;4.07;;;1.42;;
45136;SDS011;30894;51.740;19.498;2023-02-26T18:25:45;4.53;;;2.35;;
45136;SDS011;30894;51.740;19.498;2023-02-26T18:28:21;7.00;;;2.08;;
45136;SDS011;30894;51.740;19.498;2023-02-26T18:30:50;6.65;;;1.60;;
45136;SDS011;30894;51.740;19.498;2023-02-26T18:33:18;2.53;;;1.85;;
45136;SDS011;30894;51.740;19.498;2023-02-26T18:35:45;3.38;;;1.90;;
45136;SDS011;30894;51.740;19.498;2023-02-26T18:38:18;2.45;;;1.55;;